sensor_id;sensor_type;location;lat;lon;timestamp;temperature;humidity
30047;DHT22;16878;52.542;13.426;2022-11-15T00:02:05;6.30;99.90
30047;DHT22;16878;52.542;13.426;2022-11-15T00:04:31;6.20;99.90
30047;DHT22;16878;52.542;13.426;2022-11-15T00:06:57;6.20;99.90
30047;DHT22;16878;52.542;13.426;2022-11-15T00:09:22;6.20;99.90
30047;DHT22;16878;52.542;13.426;2022-11-15T00:11:48;6.20;99.90
30047;DHT22;16878;52.542;13.426;2022-11-15T00:14:13;6.10;99.90
30047;DHT22;16878;52.542;13.426;2022-11-15T00:16:38;6.10;99.90
30047;DHT22;16878;52.542;13.426;2022-11-15T00:19:04;6.10;99.90
30047;DHT22;16878;52.542;13.426;2022-11-15T00:21:30;6.10;99.90
30047;DHT22;16878;52.542;13.426;2022-11-15T00:23:55;6.10;99.90
30047;DHT22;16878;52.542;13.426;2022-11-15T00:26:21;6.10;99.90
30047;DHT22;16878;52.542;13.426;2022-11-15T00:28:46;6.10;99.90
30047;DHT22;16878;52.542;13.426;2022-11-15T00:31:12;6.10;99.90
30047;DHT22;16878;52.542;13.426;2022-11-15T00:33:38;6.10;99.90
30047;DHT22;16878;52.542;13.426;2022-11-15T00:36:07;6.10;99.90
30047;DHT22;16878;52.542;13.426;2022-11-15T00:38:35;6.10;99.90
30047;DHT22;16878;52.542;13.426;2022-11-15T00:41:01;6.00;99.90
30047;DHT22;16878;52.542;13.426;2022-11-15T00:43:26;6.00;99.90
30047;DHT22;16878;52.542;13.426;2022-11-15T00:45:52;6.00;99.90
30047;DHT22;16878;52.542;13.426;2022-11-15T00:48:17;6.00;99.90
30047;DHT22;16878;52.542;13.426;2022-11-15T00:50:43;6.00;99.90
30047;DHT22;16878;52.542;13.426;2022-11-15T00:53:09;5.90;99.90
30047;DHT22;16878;52.542;13.426;2022-11-15T00:55:34;5.90;99.90
30047;DHT22;16878;52.542;13.426;2022-11-15T00:58:00;5.90;99.90
30047;DHT22;16878;52.542;13.426;2022-11-15T01:00:25;5.90;99.90
30047;DHT22;16878;52.542;13.426;2022-11-15T01:02:51;5.90;99.90
30047;DHT22;16878;52.542;13.426;2022-11-15T01:05:16;5.90;99.90
30047;DHT22;16878;52.542;13.426;2022-11-15T01:07:42;5.90;99.90
30047;DHT22;16878;52.542;13.426;2022-11-15T01:10:08;5.80;99.90
30047;DHT22;16878;52.542;13.426;2022-11-15T01:12:33;5.90;99.90
30047;DHT22;16878;52.542;13.426;2022-11-15T01:14:59;5.80;99.90
30047;DHT22;16878;52.542;13.426;2022-11-15T01:17:24;5.80;99.90
30047;DHT22;16878;52.542;13.426;2022-11-15T01:19:50;5.80;99.90
30047;DHT22;16878;52.542;13.426;2022-11-15T01:22:16;5.70;99.90
30047;DHT22;16878;52.542;13.426;2022-11-15T01:24:41;5.80;99.90
30047;DHT22;16878;52.542;13.426;2022-11-15T01:27:07;5.70;99.90
30047;DHT22;16878;52.542;13.426;2022-11-15T01:29:33;5.70;99.90
30047;DHT22;16878;52.542;13.426;2022-11-15T01:31:58;5.70;99.90
30047;DHT22;16878;52.542;13.426;2022-11-15T01:34:24;5.70;99.90
30047;DHT22;16878;52.542;13.426;2022-11-15T01:36:49;5.70;99.90
30047;DHT22;16878;52.542;13.426;2022-11-15T01:39:15;5.70;99.90
30047;DHT22;16878;52.542;13.426;2022-11-15T01:41:40;5.70;99.90
30047;DHT22;16878;52.542;13.426;2022-11-15T01:46:51;5.70;99.90
30047;DHT22;16878;52.542;13.426;2022-11-15T01:49:18;5.70;99.90
30047;DHT22;16878;52.542;13.426;2022-11-15T01:51:45;5.60;99.90
30047;DHT22;16878;52.542;13.426;2022-11-15T01:54:11;5.60;99.90
30047;DHT22;16878;52.542;13.426;2022-11-15T01:56:43;5.70;99.90
30047;DHT22;16878;52.542;13.426;2022-11-15T01:59:10;5.70;99.90
30047;DHT22;16878;52.542;13.426;2022-11-15T02:01:36;5.60;99.90
30047;DHT22;16878;52.542;13.426;2022-11-15T02:04:45;5.60;99.90
30047;DHT22;16878;52.542;13.426;2022-11-15T02:06:51;5.60;99.90
30047;DHT22;16878;52.542;13.426;2022-11-15T02:09:17;5.70;99.90
30047;DHT22;16878;52.542;13.426;2022-11-15T02:11:42;5.60;99.90
30047;DHT22;16878;52.542;13.426;2022-11-15T02:14:13;5.60;99.90
30047;DHT22;16878;52.542;13.426;2022-11-15T02:19:34;5.60;99.90
30047;DHT22;16878;52.542;13.426;2022-11-15T02:22:10;5.60;99.90
30047;DHT22;16878;52.542;13.426;2022-11-15T02:24:44;5.60;99.90
30047;DHT22;16878;52.542;13.426;2022-11-15T02:32:18;5.50;99.90
30047;DHT22;16878;52.542;13.426;2022-11-15T02:34:58;5.50;99.90
30047;DHT22;16878;52.542;13.426;2022-11-15T02:39:57;5.50;99.90
30047;DHT22;16878;52.542;13.426;2022-11-15T02:42:26;5.50;99.90
30047;DHT22;16878;52.542;13.426;2022-11-15T02:45:13;5.50;99.90
30047;DHT22;16878;52.542;13.426;2022-11-15T02:47:44;5.50;99.90
30047;DHT22;16878;52.542;13.426;2022-11-15T02:50:12;5.50;99.90
30047;DHT22;16878;52.542;13.426;2022-11-15T02:52:38;5.50;99.90
30047;DHT22;16878;52.542;13.426;2022-11-15T02:55:04;5.50;99.90
30047;DHT22;16878;52.542;13.426;2022-11-15T02:57:44;5.60;99.90
30047;DHT22;16878;52.542;13.426;2022-11-15T03:00:12;5.50;99.90
30047;DHT22;16878;52.542;13.426;2022-11-15T03:02:42;5.50;99.90
30047;DHT22;16878;52.542;13.426;2022-11-15T03:05:15;5.50;99.90
30047;DHT22;16878;52.542;13.426;2022-11-15T03:07:50;5.50;99.90
30047;DHT22;16878;52.542;13.426;2022-11-15T03:12:45;5.50;99.90
30047;DHT22;16878;52.542;13.426;2022-11-15T03:15:13;5.50;99.90
30047;DHT22;16878;52.542;13.426;2022-11-15T03:17:49;5.50;99.90
30047;DHT22;16878;52.542;13.426;2022-11-15T03:20:17;5.50;99.90
30047;DHT22;16878;52.542;13.426;2022-11-15T03:22:44;5.40;99.90
30047;DHT22;16878;52.542;13.426;2022-11-15T03:25:12;5.50;99.90
30047;DHT22;16878;52.542;13.426;2022-11-15T03:27:40;5.50;99.90
30047;DHT22;16878;52.542;13.426;2022-11-15T03:30:07;5.50;99.90
30047;DHT22;16878;52.542;13.426;2022-11-15T03:32:34;5.50;99.90
30047;DHT22;16878;52.542;13.426;2022-11-15T03:35:03;5.50;99.90
30047;DHT22;16878;52.542;13.426;2022-11-15T03:37:34;5.50;99.90
30047;DHT22;16878;52.542;13.426;2022-11-15T03:40:02;5.40;99.90
30047;DHT22;16878;52.542;13.426;2022-11-15T03:47:35;5.50;99.90
30047;DHT22;16878;52.542;13.426;2022-11-15T03:50:20;5.40;99.90
30047;DHT22;16878;52.542;13.426;2022-11-15T03:52:46;5.40;99.90
30047;DHT22;16878;52.542;13.426;2022-11-15T03:55:13;5.40;99.90
30047;DHT22;16878;52.542;13.426;2022-11-15T03:57:39;5.40;99.90
30047;DHT22;16878;52.542;13.426;2022-11-15T04:00:05;5.40;99.90
30047;DHT22;16878;52.542;13.426;2022-11-15T04:02:30;5.40;99.90
30047;DHT22;16878;52.542;13.426;2022-11-15T04:04:56;5.40;99.90
30047;DHT22;16878;52.542;13.426;2022-11-15T04:07:21;5.40;99.90
30047;DHT22;16878;52.542;13.426;2022-11-15T04:09:47;5.40;99.90
30047;DHT22;16878;52.542;13.426;2022-11-15T04:12:37;5.40;99.90
30047;DHT22;16878;52.542;13.426;2022-11-15T04:15:07;5.40;99.90
30047;DHT22;16878;52.542;13.426;2022-11-15T04:17:34;5.40;99.90
30047;DHT22;16878;52.542;13.426;2022-11-15T04:19:59;5.40;99.90
30047;DHT22;16878;52.542;13.426;2022-11-15T04:22:44;5.40;99.90
30047;DHT22;16878;52.542;13.426;2022-11-15T04:25:28;5.40;99.90
30047;DHT22;16878;52.542;13.426;2022-11-15T04:27:54;5.40;99.90
30047;DHT22;16878;52.542;13.426;2022-11-15T04:30:19;5.40;99.90
30047;DHT22;16878;52.542;13.426;2022-11-15T04:32:45;5.40;99.90
30047;DHT22;16878;52.542;13.426;2022-11-15T04:35:10;5.40;99.90
30047;DHT22;16878;52.542;13.426;2022-11-15T04:37:36;5.40;99.90
30047;DHT22;16878;52.542;13.426;2022-11-15T04:40:01;5.40;99.90
30047;DHT22;16878;52.542;13.426;2022-11-15T04:42:27;5.40;99.90
30047;DHT22;16878;52.542;13.426;2022-11-15T04:44:52;5.40;99.90
30047;DHT22;16878;52.542;13.426;2022-11-15T04:47:18;5.40;99.90
30047;DHT22;16878;52.542;13.426;2022-11-15T04:49:44;5.40;99.90
30047;DHT22;16878;52.542;13.426;2022-11-15T04:52:09;5.40;99.90
30047;DHT22;16878;52.542;13.426;2022-11-15T04:54:35;5.50;99.90
30047;DHT22;16878;52.542;13.426;2022-11-15T04:57:00;5.50;99.90
30047;DHT22;16878;52.542;13.426;2022-11-15T04:59:26;5.50;99.90
30047;DHT22;16878;52.542;13.426;2022-11-15T05:01:51;5.50;99.90
30047;DHT22;16878;52.542;13.426;2022-11-15T05:04:17;5.40;99.90
30047;DHT22;16878;52.542;13.426;2022-11-15T05:06:48;5.40;99.90
30047;DHT22;16878;52.542;13.426;2022-11-15T05:09:14;5.40;99.90
30047;DHT22;16878;52.542;13.426;2022-11-15T05:11:40;5.40;99.90
30047;DHT22;16878;52.542;13.426;2022-11-15T05:14:06;5.40;99.90
30047;DHT22;16878;52.542;13.426;2022-11-15T05:16:31;5.40;99.90
30047;DHT22;16878;52.542;13.426;2022-11-15T05:18:57;5.40;99.90
30047;DHT22;16878;52.542;13.426;2022-11-15T05:21:22;5.40;99.90
30047;DHT22;16878;52.542;13.426;2022-11-15T05:23:48;5.40;99.90
30047;DHT22;16878;52.542;13.426;2022-11-15T05:26:16;5.40;99.90
30047;DHT22;16878;52.542;13.426;2022-11-15T05:28:42;5.40;99.90
30047;DHT22;16878;52.542;13.426;2022-11-15T05:31:09;5.40;99.90
30047;DHT22;16878;52.542;13.426;2022-11-15T05:33:35;5.40;99.90
30047;DHT22;16878;52.542;13.426;2022-11-15T05:36:02;5.40;99.90
30047;DHT22;16878;52.542;13.426;2022-11-15T05:38:29;5.40;99.90
30047;DHT22;16878;52.542;13.426;2022-11-15T05:40:55;5.40;99.90
30047;DHT22;16878;52.542;13.426;2022-11-15T05:43:20;5.40;99.90
30047;DHT22;16878;52.542;13.426;2022-11-15T05:45:46;5.40;99.90
30047;DHT22;16878;52.542;13.426;2022-11-15T05:48:11;5.40;99.90
30047;DHT22;16878;52.542;13.426;2022-11-15T05:50:38;5.40;99.90
30047;DHT22;16878;52.542;13.426;2022-11-15T05:53:06;5.40;99.90
30047;DHT22;16878;52.542;13.426;2022-11-15T05:55:32;5.40;99.90
30047;DHT22;16878;52.542;13.426;2022-11-15T05:57:58;5.40;99.90
30047;DHT22;16878;52.542;13.426;2022-11-15T06:00:23;5.40;99.90
30047;DHT22;16878;52.542;13.426;2022-11-15T06:02:49;5.40;99.90
30047;DHT22;16878;52.542;13.426;2022-11-15T06:05:14;5.40;99.90
30047;DHT22;16878;52.542;13.426;2022-11-15T06:07:40;5.40;99.90
30047;DHT22;16878;52.542;13.426;2022-11-15T06:10:05;5.40;99.90
30047;DHT22;16878;52.542;13.426;2022-11-15T06:12:31;5.40;99.90
30047;DHT22;16878;52.542;13.426;2022-11-15T06:14:57;5.40;99.90
30047;DHT22;16878;52.542;13.426;2022-11-15T06:17:22;5.40;99.90
30047;DHT22;16878;52.542;13.426;2022-11-15T06:19:48;5.40;99.90
30047;DHT22;16878;52.542;13.426;2022-11-15T06:22:13;5.40;99.90
30047;DHT22;16878;52.542;13.426;2022-11-15T06:24:39;5.40;99.90
30047;DHT22;16878;52.542;13.426;2022-11-15T06:27:04;5.40;99.90
30047;DHT22;16878;52.542;13.426;2022-11-15T06:29:30;5.30;99.90
30047;DHT22;16878;52.542;13.426;2022-11-15T06:31:55;5.40;99.90
30047;DHT22;16878;52.542;13.426;2022-11-15T06:34:21;5.40;99.90
30047;DHT22;16878;52.542;13.426;2022-11-15T06:36:46;5.40;99.90
30047;DHT22;16878;52.542;13.426;2022-11-15T06:39:12;5.40;99.90
30047;DHT22;16878;52.542;13.426;2022-11-15T06:41:37;5.40;99.90
30047;DHT22;16878;52.542;13.426;2022-11-15T06:44:03;5.50;99.90
30047;DHT22;16878;52.542;13.426;2022-11-15T06:46:28;5.50;99.90
30047;DHT22;16878;52.542;13.426;2022-11-15T06:48:54;5.50;99.90
30047;DHT22;16878;52.542;13.426;2022-11-15T06:51:19;5.50;99.90
30047;DHT22;16878;52.542;13.426;2022-11-15T06:53:45;5.50;99.90
30047;DHT22;16878;52.542;13.426;2022-11-15T06:56:10;5.60;99.90
30047;DHT22;16878;52.542;13.426;2022-11-15T06:58:36;5.60;99.90
30047;DHT22;16878;52.542;13.426;2022-11-15T07:01:05;5.60;99.90
30047;DHT22;16878;52.542;13.426;2022-11-15T07:03:33;5.70;99.90
30047;DHT22;16878;52.542;13.426;2022-11-15T07:05:59;5.70;99.90
30047;DHT22;16878;52.542;13.426;2022-11-15T07:08:26;5.70;99.90
30047;DHT22;16878;52.542;13.426;2022-11-15T07:10:52;5.70;99.90
30047;DHT22;16878;52.542;13.426;2022-11-15T07:13:17;5.80;99.90
30047;DHT22;16878;52.542;13.426;2022-11-15T07:15:46;5.80;99.90
30047;DHT22;16878;52.542;13.426;2022-11-15T07:18:12;5.90;99.90
30047;DHT22;16878;52.542;13.426;2022-11-15T07:20:38;5.90;99.90
30047;DHT22;16878;52.542;13.426;2022-11-15T07:23:05;6.00;99.90
30047;DHT22;16878;52.542;13.426;2022-11-15T07:25:30;6.00;99.90
30047;DHT22;16878;52.542;13.426;2022-11-15T07:27:56;6.00;99.90
30047;DHT22;16878;52.542;13.426;2022-11-15T07:30:22;6.10;99.90
30047;DHT22;16878;52.542;13.426;2022-11-15T07:32:52;6.10;99.90
30047;DHT22;16878;52.542;13.426;2022-11-15T07:35:17;6.20;99.90
30047;DHT22;16878;52.542;13.426;2022-11-15T07:37:43;6.30;99.90
30047;DHT22;16878;52.542;13.426;2022-11-15T07:40:08;6.30;99.90
30047;DHT22;16878;52.542;13.426;2022-11-15T07:42:34;6.30;99.90
30047;DHT22;16878;52.542;13.426;2022-11-15T07:45:18;6.40;99.90
30047;DHT22;16878;52.542;13.426;2022-11-15T07:47:45;6.40;99.90
30047;DHT22;16878;52.542;13.426;2022-11-15T07:50:11;6.50;99.90
30047;DHT22;16878;52.542;13.426;2022-11-15T07:52:36;6.50;99.90
30047;DHT22;16878;52.542;13.426;2022-11-15T07:55:02;6.60;99.90
30047;DHT22;16878;52.542;13.426;2022-11-15T07:57:30;6.70;99.90
30047;DHT22;16878;52.542;13.426;2022-11-15T07:59:56;6.70;99.90
30047;DHT22;16878;52.542;13.426;2022-11-15T08:02:21;6.80;99.90
30047;DHT22;16878;52.542;13.426;2022-11-15T08:04:47;6.90;99.90
30047;DHT22;16878;52.542;13.426;2022-11-15T08:07:13;6.90;99.90
30047;DHT22;16878;52.542;13.426;2022-11-15T08:09:38;7.00;99.90
30047;DHT22;16878;52.542;13.426;2022-11-15T08:12:04;7.00;99.90
30047;DHT22;16878;52.542;13.426;2022-11-15T08:14:29;7.10;99.90
30047;DHT22;16878;52.542;13.426;2022-11-15T08:16:55;7.20;99.90
30047;DHT22;16878;52.542;13.426;2022-11-15T08:19:20;7.20;99.90
30047;DHT22;16878;52.542;13.426;2022-11-15T08:21:46;7.30;99.90
30047;DHT22;16878;52.542;13.426;2022-11-15T08:24:15;7.40;99.90
30047;DHT22;16878;52.542;13.426;2022-11-15T08:26:40;7.40;99.90
30047;DHT22;16878;52.542;13.426;2022-11-15T08:29:06;7.40;99.90
30047;DHT22;16878;52.542;13.426;2022-11-15T08:31:34;7.50;99.90
30047;DHT22;16878;52.542;13.426;2022-11-15T08:34:01;7.50;99.90
30047;DHT22;16878;52.542;13.426;2022-11-15T08:36:27;7.60;99.90
30047;DHT22;16878;52.542;13.426;2022-11-15T08:38:53;7.60;99.90
30047;DHT22;16878;52.542;13.426;2022-11-15T08:41:21;7.70;99.90
30047;DHT22;16878;52.542;13.426;2022-11-15T08:43:49;7.80;99.90
30047;DHT22;16878;52.542;13.426;2022-11-15T08:46:15;7.90;99.90
30047;DHT22;16878;52.542;13.426;2022-11-15T08:48:40;7.90;99.90
30047;DHT22;16878;52.542;13.426;2022-11-15T08:51:06;8.00;99.90
30047;DHT22;16878;52.542;13.426;2022-11-15T08:53:31;8.00;99.90
30047;DHT22;16878;52.542;13.426;2022-11-15T08:55:57;8.10;99.90
30047;DHT22;16878;52.542;13.426;2022-11-15T08:58:23;8.10;99.90
30047;DHT22;16878;52.542;13.426;2022-11-15T09:00:48;8.20;99.90
30047;DHT22;16878;52.542;13.426;2022-11-15T09:03:14;8.30;99.90
30047;DHT22;16878;52.542;13.426;2022-11-15T09:05:40;8.30;99.90
30047;DHT22;16878;52.542;13.426;2022-11-15T09:08:05;8.40;99.90
30047;DHT22;16878;52.542;13.426;2022-11-15T09:10:31;8.40;99.90
30047;DHT22;16878;52.542;13.426;2022-11-15T09:12:57;8.50;99.90
30047;DHT22;16878;52.542;13.426;2022-11-15T09:15:22;8.50;99.90
30047;DHT22;16878;52.542;13.426;2022-11-15T09:17:48;8.60;99.90
30047;DHT22;16878;52.542;13.426;2022-11-15T09:20:13;8.60;99.90
30047;DHT22;16878;52.542;13.426;2022-11-15T09:22:42;8.70;99.90
30047;DHT22;16878;52.542;13.426;2022-11-15T09:25:07;8.80;99.90
30047;DHT22;16878;52.542;13.426;2022-11-15T09:27:33;8.80;99.90
30047;DHT22;16878;52.542;13.426;2022-11-15T09:29:59;8.90;99.90
30047;DHT22;16878;52.542;13.426;2022-11-15T09:32:27;8.90;99.90
30047;DHT22;16878;52.542;13.426;2022-11-15T09:34:53;9.00;99.90
30047;DHT22;16878;52.542;13.426;2022-11-15T09:37:18;9.00;99.90
30047;DHT22;16878;52.542;13.426;2022-11-15T09:39:44;9.00;99.90
30047;DHT22;16878;52.542;13.426;2022-11-15T09:42:44;9.10;99.90
30047;DHT22;16878;52.542;13.426;2022-11-15T09:48:00;9.20;99.90
30047;DHT22;16878;52.542;13.426;2022-11-15T09:50:31;9.20;99.90
30047;DHT22;16878;52.542;13.426;2022-11-15T09:52:57;9.30;99.90
30047;DHT22;16878;52.542;13.426;2022-11-15T09:55:25;9.40;99.90
30047;DHT22;16878;52.542;13.426;2022-11-15T10:00:57;9.70;99.90
30047;DHT22;16878;52.542;13.426;2022-11-15T10:03:34;9.70;99.90
30047;DHT22;16878;52.542;13.426;2022-11-15T10:06:04;9.80;99.90
30047;DHT22;16878;52.542;13.426;2022-11-15T10:08:35;10.00;99.90
30047;DHT22;16878;52.542;13.426;2022-11-15T10:11:06;10.00;99.90
30047;DHT22;16878;52.542;13.426;2022-11-15T10:13:33;10.00;99.90
30047;DHT22;16878;52.542;13.426;2022-11-15T10:16:43;10.00;99.90
30047;DHT22;16878;52.542;13.426;2022-11-15T10:21:30;10.20;99.90
30047;DHT22;16878;52.542;13.426;2022-11-15T10:23:57;10.30;99.90
30047;DHT22;16878;52.542;13.426;2022-11-15T10:26:23;10.30;99.90
30047;DHT22;16878;52.542;13.426;2022-11-15T10:28:49;10.30;99.90
30047;DHT22;16878;52.542;13.426;2022-11-15T10:31:22;10.20;99.90
30047;DHT22;16878;52.542;13.426;2022-11-15T10:33:48;10.30;99.90
30047;DHT22;16878;52.542;13.426;2022-11-15T10:36:15;10.30;99.90
30047;DHT22;16878;52.542;13.426;2022-11-15T10:41:13;10.20;99.90
30047;DHT22;16878;52.542;13.426;2022-11-15T10:43:39;10.20;99.90
30047;DHT22;16878;52.542;13.426;2022-11-15T10:46:18;10.30;99.90
30047;DHT22;16878;52.542;13.426;2022-11-15T10:48:44;10.30;99.90
30047;DHT22;16878;52.542;13.426;2022-11-15T10:51:19;10.30;99.90
30047;DHT22;16878;52.542;13.426;2022-11-15T10:53:45;10.30;99.90
30047;DHT22;16878;52.542;13.426;2022-11-15T10:56:12;10.40;99.90
30047;DHT22;16878;52.542;13.426;2022-11-15T10:58:50;10.60;99.90
30047;DHT22;16878;52.542;13.426;2022-11-15T11:01:22;10.60;99.90
30047;DHT22;16878;52.542;13.426;2022-11-15T11:04:04;10.60;99.90
30047;DHT22;16878;52.542;13.426;2022-11-15T11:06:31;10.60;99.90
30047;DHT22;16878;52.542;13.426;2022-11-15T11:08:59;10.60;99.90
30047;DHT22;16878;52.542;13.426;2022-11-15T11:11:26;10.70;99.90
30047;DHT22;16878;52.542;13.426;2022-11-15T11:14:12;10.70;99.90
30047;DHT22;16878;52.542;13.426;2022-11-15T11:16:42;10.70;99.90
30047;DHT22;16878;52.542;13.426;2022-11-15T11:32:49;11.00;99.90
30047;DHT22;16878;52.542;13.426;2022-11-15T11:37:49;11.00;99.90
30047;DHT22;16878;52.542;13.426;2022-11-15T11:43:33;11.00;99.90
30047;DHT22;16878;52.542;13.426;2022-11-15T11:48:43;11.00;99.90
30047;DHT22;16878;52.542;13.426;2022-11-15T11:51:12;11.00;99.90
30047;DHT22;16878;52.542;13.426;2022-11-15T11:53:43;11.10;99.90
30047;DHT22;16878;52.542;13.426;2022-11-15T11:56:15;11.00;99.90
30047;DHT22;16878;52.542;13.426;2022-11-15T11:58:43;11.10;99.90
30047;DHT22;16878;52.542;13.426;2022-11-15T12:01:17;11.00;99.90
30047;DHT22;16878;52.542;13.426;2022-11-15T12:04:04;11.00;99.90
30047;DHT22;16878;52.542;13.426;2022-11-15T12:17:00;11.00;99.90
30047;DHT22;16878;52.542;13.426;2022-11-15T12:19:26;11.10;99.90
30047;DHT22;16878;52.542;13.426;2022-11-15T12:22:04;11.10;99.90
30047;DHT22;16878;52.542;13.426;2022-11-15T12:24:39;11.20;99.90
30047;DHT22;16878;52.542;13.426;2022-11-15T12:27:11;11.30;99.90
30047;DHT22;16878;52.542;13.426;2022-11-15T12:29:47;11.20;99.90
30047;DHT22;16878;52.542;13.426;2022-11-15T12:32:27;11.20;99.90
30047;DHT22;16878;52.542;13.426;2022-11-15T12:34:54;11.30;99.90
30047;DHT22;16878;52.542;13.426;2022-11-15T12:37:33;11.30;99.90
30047;DHT22;16878;52.542;13.426;2022-11-15T12:42:58;11.20;99.90
30047;DHT22;16878;52.542;13.426;2022-11-15T12:45:26;11.10;99.90
30047;DHT22;16878;52.542;13.426;2022-11-15T12:47:52;11.10;99.90
30047;DHT22;16878;52.542;13.426;2022-11-15T12:50:39;11.10;99.90
30047;DHT22;16878;52.542;13.426;2022-11-15T12:56:08;11.20;99.90
30047;DHT22;16878;52.542;13.426;2022-11-15T13:01:08;11.20;99.90
30047;DHT22;16878;52.542;13.426;2022-11-15T13:03:34;11.20;99.90
30047;DHT22;16878;52.542;13.426;2022-11-15T13:06:00;11.20;99.90
30047;DHT22;16878;52.542;13.426;2022-11-15T13:09:00;11.20;99.90
30047;DHT22;16878;52.542;13.426;2022-11-15T13:14:03;11.50;99.90
30047;DHT22;16878;52.542;13.426;2022-11-15T13:16:48;11.50;99.90
30047;DHT22;16878;52.542;13.426;2022-11-15T13:19:14;11.60;99.90
30047;DHT22;16878;52.542;13.426;2022-11-15T13:21:47;11.70;99.90
30047;DHT22;16878;52.542;13.426;2022-11-15T13:24:31;11.70;99.90
30047;DHT22;16878;52.542;13.426;2022-11-15T13:26:58;11.60;99.90
30047;DHT22;16878;52.542;13.426;2022-11-15T13:29:23;11.40;99.90
30047;DHT22;16878;52.542;13.426;2022-11-15T13:31:49;11.30;99.90
30047;DHT22;16878;52.542;13.426;2022-11-15T13:36:43;11.30;99.90
30047;DHT22;16878;52.542;13.426;2022-11-15T13:39:51;11.20;99.90
30047;DHT22;16878;52.542;13.426;2022-11-15T13:41:58;11.10;99.90
30047;DHT22;16878;52.542;13.426;2022-11-15T13:44:28;11.20;99.90
30047;DHT22;16878;52.542;13.426;2022-11-15T13:47:07;11.10;99.90
30047;DHT22;16878;52.542;13.426;2022-11-15T13:49:35;11.10;99.90
30047;DHT22;16878;52.542;13.426;2022-11-15T13:52:01;11.10;99.90
30047;DHT22;16878;52.542;13.426;2022-11-15T13:56:55;11.30;99.90
30047;DHT22;16878;52.542;13.426;2022-11-15T13:59:33;11.30;99.90
30047;DHT22;16878;52.542;13.426;2022-11-15T14:02:01;11.30;99.90
30047;DHT22;16878;52.542;13.426;2022-11-15T14:04:27;11.40;99.90
30047;DHT22;16878;52.542;13.426;2022-11-15T14:06:55;11.60;99.90
30047;DHT22;16878;52.542;13.426;2022-11-15T14:11:54;11.50;99.90
30047;DHT22;16878;52.542;13.426;2022-11-15T14:14:21;11.60;99.90
30047;DHT22;16878;52.542;13.426;2022-11-15T14:16:48;11.80;99.90
30047;DHT22;16878;52.542;13.426;2022-11-15T14:24:30;11.90;99.90
30047;DHT22;16878;52.542;13.426;2022-11-15T14:26:56;11.80;99.90
30047;DHT22;16878;52.542;13.426;2022-11-15T14:29:23;12.00;99.90
30047;DHT22;16878;52.542;13.426;2022-11-15T14:31:49;11.80;99.90
30047;DHT22;16878;52.542;13.426;2022-11-15T14:34:14;11.80;99.90
30047;DHT22;16878;52.542;13.426;2022-11-15T14:36:40;11.70;99.90
30047;DHT22;16878;52.542;13.426;2022-11-15T14:39:06;11.70;99.90
30047;DHT22;16878;52.542;13.426;2022-11-15T14:41:34;11.80;99.90
30047;DHT22;16878;52.542;13.426;2022-11-15T14:44:03;11.70;99.90
30047;DHT22;16878;52.542;13.426;2022-11-15T14:46:29;11.70;99.90
30047;DHT22;16878;52.542;13.426;2022-11-15T14:48:54;11.60;99.90
30047;DHT22;16878;52.542;13.426;2022-11-15T14:51:20;11.50;99.90
30047;DHT22;16878;52.542;13.426;2022-11-15T14:53:45;11.40;99.90
30047;DHT22;16878;52.542;13.426;2022-11-15T14:56:11;11.40;99.90
30047;DHT22;16878;52.542;13.426;2022-11-15T14:58:37;11.50;99.90
30047;DHT22;16878;52.542;13.426;2022-11-15T15:01:13;11.50;99.90
30047;DHT22;16878;52.542;13.426;2022-11-15T15:03:39;11.60;99.90
30047;DHT22;16878;52.542;13.426;2022-11-15T15:06:05;11.50;99.90
30047;DHT22;16878;52.542;13.426;2022-11-15T15:08:30;11.40;99.90
30047;DHT22;16878;52.542;13.426;2022-11-15T15:10:56;11.40;99.90
30047;DHT22;16878;52.542;13.426;2022-11-15T15:13:23;11.40;99.90
30047;DHT22;16878;52.542;13.426;2022-11-15T15:15:49;11.40;99.90
30047;DHT22;16878;52.542;13.426;2022-11-15T15:18:15;11.40;99.90
30047;DHT22;16878;52.542;13.426;2022-11-15T15:20:41;11.30;99.90
30047;DHT22;16878;52.542;13.426;2022-11-15T15:23:18;11.30;99.90
30047;DHT22;16878;52.542;13.426;2022-11-15T15:25:45;11.30;99.90
30047;DHT22;16878;52.542;13.426;2022-11-15T15:28:11;11.20;99.90
30047;DHT22;16878;52.542;13.426;2022-11-15T15:30:37;11.00;99.90
30047;DHT22;16878;52.542;13.426;2022-11-15T15:33:03;10.90;99.90
30047;DHT22;16878;52.542;13.426;2022-11-15T15:35:29;10.80;99.90
30047;DHT22;16878;52.542;13.426;2022-11-15T15:37:56;10.70;99.90
30047;DHT22;16878;52.542;13.426;2022-11-15T15:40:22;10.60;99.90
30047;DHT22;16878;52.542;13.426;2022-11-15T15:42:48;10.60;99.90
30047;DHT22;16878;52.542;13.426;2022-11-15T15:45:14;10.50;99.90
30047;DHT22;16878;52.542;13.426;2022-11-15T15:47:43;10.40;99.90
30047;DHT22;16878;52.542;13.426;2022-11-15T15:52:37;10.20;99.90
30047;DHT22;16878;52.542;13.426;2022-11-15T15:55:03;10.20;99.90
30047;DHT22;16878;52.542;13.426;2022-11-15T15:57:32;10.30;99.90
30047;DHT22;16878;52.542;13.426;2022-11-15T15:59:58;10.40;99.90
30047;DHT22;16878;52.542;13.426;2022-11-15T16:02:23;10.40;99.90
30047;DHT22;16878;52.542;13.426;2022-11-15T16:04:49;10.40;99.90
30047;DHT22;16878;52.542;13.426;2022-11-15T16:07:20;10.30;99.90
30047;DHT22;16878;52.542;13.426;2022-11-15T16:09:46;10.20;99.90
30047;DHT22;16878;52.542;13.426;2022-11-15T16:12:28;10.00;99.90
30047;DHT22;16878;52.542;13.426;2022-11-15T16:14:53;10.20;99.90
30047;DHT22;16878;52.542;13.426;2022-11-15T16:17:22;10.20;99.90
30047;DHT22;16878;52.542;13.426;2022-11-15T16:19:48;10.30;99.90
30047;DHT22;16878;52.542;13.426;2022-11-15T16:22:14;10.40;99.90
30047;DHT22;16878;52.542;13.426;2022-11-15T16:24:39;10.30;99.90
30047;DHT22;16878;52.542;13.426;2022-11-15T16:27:05;10.30;99.90
30047;DHT22;16878;52.542;13.426;2022-11-15T16:29:30;10.30;99.90
30047;DHT22;16878;52.542;13.426;2022-11-15T16:31:56;10.20;99.90
30047;DHT22;16878;52.542;13.426;2022-11-15T16:34:21;10.20;99.90
30047;DHT22;16878;52.542;13.426;2022-11-15T16:36:50;10.10;99.90
30047;DHT22;16878;52.542;13.426;2022-11-15T16:39:16;10.00;99.90
30047;DHT22;16878;52.542;13.426;2022-11-15T16:41:43;9.90;99.90
30047;DHT22;16878;52.542;13.426;2022-11-15T16:44:12;9.90;99.90
30047;DHT22;16878;52.542;13.426;2022-11-15T16:46:38;9.80;99.90
30047;DHT22;16878;52.542;13.426;2022-11-15T16:49:05;9.80;99.90
30047;DHT22;16878;52.542;13.426;2022-11-15T16:51:34;9.80;99.90
30047;DHT22;16878;52.542;13.426;2022-11-15T16:53:59;9.70;99.90
30047;DHT22;16878;52.542;13.426;2022-11-15T16:58:51;9.70;99.90
30047;DHT22;16878;52.542;13.426;2022-11-15T17:01:21;9.60;99.90
30047;DHT22;16878;52.542;13.426;2022-11-15T17:03:50;9.60;99.90